This is the latest recevied weather packets stored in our database for station/object SP1BMW-13. If no packets are shown the sender has not sent any weather packets the latest 10 day(s).
| Time | Temp. | Humidity | Pressure | Rain* | Wind** | Luminosity | Snow |
|---|---|---|---|---|---|---|---|
| 1787842816 | 26.67° C | 35% | 1018 hPa | 0 mm | 0.89 m/s, 18° | 318 W/m² | - |
| 1787842756 | 26.67° C | 35% | 1018.1 hPa | 0 mm | 0.89 m/s, 163° | 316 W/m² | - |
| 1787842696 | 26.67° C | 37% | 1018.1 hPa | 0 mm | 0.89 m/s, 71° | 321 W/m² | - |
| 1787842636 | 26.67° C | 35% | 1018 hPa | 0 mm | 2.68 m/s, 58° | 311 W/m² | - |
| 1787842576 | 26.67° C | 35% | 1018 hPa | 0 mm | 0.89 m/s, 118° | 312 W/m² | - |
| 1787842516 | 26.67° C | 35% | 1018 hPa | 0 mm | 1.34 m/s, 63° | 309 W/m² | - |
| 1787842456 | 26.67° C | 37% | 1018.1 hPa | 0 mm | 0.89 m/s, 80° | 314 W/m² | - |
| 1787842396 | 26.67° C | 37% | 1018 hPa | 0 mm | 0 m/s | 323 W/m² | - |
| 1787842336 | 26.67° C | 36% | 1017.9 hPa | 0 mm | 1.34 m/s, 126° | 321 W/m² | - |
| 1787842276 | 26.11° C | 36% | 1018 hPa | 0 mm | 0.89 m/s, 139° | 318 W/m² | - |
| 1787842216 | 26.11° C | 38% | 1018 hPa | 0 mm | 1.79 m/s, 138° | 313 W/m² | - |
| 1787842156 | 26.11° C | 37% | 1017.8 hPa | 0 mm | 1.34 m/s, 61° | 318 W/m² | - |
| 1787842096 | 26.11° C | 38% | 1018.2 hPa | 0 mm | 0 m/s | 325 W/m² | - |
| 1787842036 | 26.11° C | 37% | 1017.8 hPa | 0 mm | 0.89 m/s, 27° | 335 W/m² | - |
| 1787841976 | 26.11° C | 36% | 1018 hPa | 0 mm | 1.34 m/s, 9° | 337 W/m² | - |
| 1787841916 | 26.11° C | 37% | 1017.9 hPa | 0 mm | 0.45 m/s, 1° | 347 W/m² | - |
| 1787841856 | 26.11° C | 36% | 1017.7 hPa | 0 mm | 1.34 m/s, 8° | 342 W/m² | - |
| 1787841796 | 26.11° C | 38% | 1017.8 hPa | 0 mm | 0.89 m/s, 25° | 350 W/m² | - |
| 1787841736 | 26.11° C | 38% | 1017.9 hPa | 0 mm | 0.89 m/s, 157° | 353 W/m² | - |
| 1787841676 | 26.11° C | 37% | 1017.9 hPa | 0 mm | 2.24 m/s, 63° | 352 W/m² | - |
| 1787841616 | 26.11° C | 37% | 1017.8 hPa | 0 mm | 1.34 m/s, 34° | 356 W/m² | - |
| 1787841556 | 26.11° C | 38% | 1017.8 hPa | 0 mm | 1.79 m/s, 22° | 357 W/m² | - |
| 1787841496 | 26.11° C | 37% | 1017.9 hPa | 0 mm | 2.24 m/s, 337° | 360 W/m² | - |
| 1787841436 | 26.11° C | 37% | 1017.9 hPa | 0 mm | 0.89 m/s, 22° | 368 W/m² | - |
| 1787841376 | 26.11° C | 36% | 1017.9 hPa | 0 mm | 2.68 m/s, 44° | 372 W/m² | - |
* Rain latest hour (hover to see other rain measurements)
** Current wind speed in m/s (hover to see current wind gust speed)